Janesville, Wisconsin
Current Conditions -  °F | °C
As of 9:45 AM on Thursday 30 Oct 2014 (Local Time) from KJVL Reporting Station
Overcast Overcast  
Wind Chill: 41°   Ceiling: 10000
Heat Index: 41°   Visibility: 7mi
Dew Point: 36°   Wind: 3mph
Humidity: 81%   Direction: 190°S
Pressure: 30.1"   Gusts: NA
Location:  42.69°N, 89.02°W
Report Text: KJVL 301445Z 19003KT 7SM OVC100 05/02 A3010
Loading
Personal Weather Stations






























Interactive Weather Map
Tropical Storm Tracking
New forecast layout! Learn more

10-Day Weather Forecast

Advertisements
Track Severe Weather on mobile